Time;durP1;ratioP1;P1;durP2;ratioP2;P2;SDS_P1;SDS_P2;PMS_P1;PMS_P2;Temp;Humidity;BMP_temperature;BMP_pressure;BME280_temperature;BME280_humidity;BME280_pressure;Samples;Min_cycle;Max_cycle;Signal;HPM_P1;HPM_P2
2023/09/03 12:32:17;;;;;;;2.00;1.05;;;;;;;;;;5127386;27;20185;-69
2023/09/03 12:34:49;;;;;;;4.00;1.30;;;;;;;;;;5127651;27;20071;-68
2023/09/03 12:37:16;;;;;;;5.45;0.90;;;;;;;;;;5127986;27;20039;-69
2023/09/03 12:39:42;;;;;;;3.60;1.10;;;;;;;;;;5127208;27;20058;-71
2023/09/03 12:42:09;;;;;;;3.28;1.20;;;;;;;;;;5127986;28;20075;-68
2023/09/03 12:44:36;;;;;;;3.10;1.27;;;;;;;;;;5127715;28;20047;-68
2023/09/03 12:47:03;;;;;;;3.15;0.85;;;;;;;;;;5128219;28;20063;-70
2023/09/03 12:49:29;;;;;;;4.07;0.95;;;;;;;;;;5127516;28;20100;-69
2023/09/03 12:51:56;;;;;;;3.75;0.70;;;;;;;;;;5127587;28;20071;-69
2023/09/03 12:54:23;;;;;;;4.07;1.10;;;;;;;;;;5127792;28;20048;-69
2023/09/03 12:56:50;;;;;;;2.33;0.80;;;;;;;;;;5126303;28;20036;-69
2023/09/03 12:59:16;;;;;;;1.65;0.55;;;;;;;;;;5127445;28;20603;-68
2023/09/03 13:01:42;;;;;;;2.50;0.75;;;;;;;;;;5127337;28;20121;-70
2023/09/03 13:04:13;;;;;;;7.53;1.27;;;;;;;;;;5127298;28;20048;-69
2023/09/03 13:06:40;;;;;;;6.18;1.67;;;;;;;;;;5127442;28;20069;-68
2023/09/03 13:09:10;;;;;;;6.30;1.38;;;;;;;;;;5127561;28;20050;-68
2023/09/03 13:11:37;;;;;;;2.58;0.90;;;;;;;;;;5127066;28;20349;-68
2023/09/03 13:14:03;;;;;;;4.20;1.65;;;;;;;;;;5127149;28;20135;-69
2023/09/03 13:16:30;;;;;;;9.32;1.88;;;;;;;;;;5127290;28;20122;-68
2023/09/03 13:18:57;;;;;;;6.90;1.08;;;;;;;;;;5127115;28;20066;-66
2023/09/03 13:21:24;;;;;;;3.85;1.50;;;;;;;;;;5127744;28;20130;-68
2023/09/03 13:23:50;;;;;;;3.72;0.90;;;;;;;;;;5126742;28;20090;-68
2023/09/03 13:26:17;;;;;;;16.50;2.90;;;;;;;;;;5127538;28;20455;-68
2023/09/03 13:28:43;;;;;;;4.15;0.98;;;;;;;;;;5126530;28;20039;-69
2023/09/03 13:31:10;;;;;;;6.68;1.48;;;;;;;;;;5127007;28;20050;-68
2023/09/03 13:33:36;;;;;;;7.43;1.02;;;;;;;;;;5126532;28;20040;-69
2023/09/03 13:36:10;;;;;;;6.50;1.20;;;;;;;;;;5126854;27;20130;-68
2023/09/03 13:38:38;;;;;;;4.05;0.82;;;;;;;;;;5126347;28;20040;-69
2023/09/03 13:41:07;;;;;;;5.00;1.52;;;;;;;;;;5127007;28;20130;-69
2023/09/03 13:43:33;;;;;;;7.15;2.00;;;;;;;;;;5112797;28;20035;-68
2023/09/03 13:46:00;;;;;;;7.95;1.45;;;;;;;;;;5112959;28;20135;-70
2023/09/03 13:48:28;;;;;;;5.75;0.82;;;;;;;;;;5113277;28;20073;-68
2023/09/03 13:50:55;;;;;;;3.10;1.33;;;;;;;;;;5112849;28;20035;-69
2023/09/03 13:53:22;;;;;;;2.50;1.10;;;;;;;;;;5113081;28;20054;-69
2023/09/03 13:55:49;;;;;;;4.47;1.20;;;;;;;;;;5112643;28;20470;-70
2023/09/03 13:58:17;;;;;;;1.90;0.95;;;;;;;;;;5112846;28;20044;-68
2023/09/03 14:00:43;;;;;;;3.20;1.33;;;;;;;;;;5112973;28;20040;-69
2023/09/03 14:03:10;;;;;;;3.92;1.00;;;;;;;;;;5112819;28;20123;-69
2023/09/03 14:05:36;;;;;;;2.65;0.80;;;;;;;;;;5112841;28;20101;-69
2023/09/03 14:08:03;;;;;;;3.83;1.08;;;;;;;;;;5112680;28;20130;-69
2023/09/03 14:10:29;;;;;;;2.05;0.77;;;;;;;;;;5126125;27;20097;-69
2023/09/03 14:12:56;;;;;;;1.50;0.73;;;;;;;;;;5113782;27;20500;-69
2023/09/03 14:15:22;;;;;;;5.53;1.85;;;;;;;;;;5111858;28;20046;-69
2023/09/03 14:17:49;;;;;;;6.03;0.85;;;;;;;;;;5112528;28;20471;-67
2023/09/03 14:20:15;;;;;;;1.95;0.70;;;;;;;;;;5112587;28;20168;-69
2023/09/03 14:22:43;;;;;;;4.22;1.15;;;;;;;;;;5111576;28;20433;-68
2023/09/03 14:25:09;;;;;;;2.15;1.02;;;;;;;;;;5111955;28;20050;-69
2023/09/03 14:27:36;;;;;;;2.75;1.27;;;;;;;;;;5111117;28;20067;-69
2023/09/03 14:30:03;;;;;;;3.95;1.10;;;;;;;;;;5110470;28;20443;-69
2023/09/03 14:32:30;;;;;;;3.28;1.23;;;;;;;;;;5110457;28;20131;-70
2023/09/03 14:34:56;;;;;;;3.42;1.00;;;;;;;;;;5110732;28;20039;-69
2023/09/03 14:37:23;;;;;;;7.05;1.65;;;;;;;;;;5110374;28;20047;-69
2023/09/03 14:39:49;;;;;;;3.70;1.73;;;;;;;;;;5110112;28;20126;-69
2023/09/03 14:42:16;;;;;;;3.50;0.88;;;;;;;;;;5110953;28;20396;-69
2023/09/03 14:44:42;;;;;;;3.50;1.38;;;;;;;;;;5111354;28;20443;-69
2023/09/03 14:47:08;;;;;;;1.58;0.73;;;;;;;;;;5112232;28;20799;-69
2023/09/03 14:49:37;;;;;;;1.63;1.00;;;;;;;;;;5112052;28;20096;-69
2023/09/03 14:52:07;;;;;;;4.90;1.38;;;;;;;;;;5091523;28;20048;-70
2023/09/03 14:54:34;;;;;;;2.15;1.00;;;;;;;;;;5102240;28;20376;-70
2023/09/03 14:57:01;;;;;;;1.25;0.93;;;;;;;;;;5112202;28;20178;-69
2023/09/03 14:59:27;;;;;;;6.47;1.15;;;;;;;;;;5111682;28;20093;-70
2023/09/03 15:01:54;;;;;;;3.28;1.05;;;;;;;;;;5124792;27;20092;-69
2023/09/03 15:04:20;;;;;;;3.47;1.40;;;;;;;;;;5113464;27;20072;-70
2023/09/03 15:06:47;;;;;;;4.55;1.05;;;;;;;;;;5111151;28;20562;-70
2023/09/03 15:09:14;;;;;;;5.40;1.20;;;;;;;;;;5110994;28;20651;-69
2023/09/03 15:11:40;;;;;;;4.32;1.20;;;;;;;;;;5111560;28;20043;-70
2023/09/03 15:14:08;;;;;;;3.65;0.95;;;;;;;;;;5111039;28;20047;-69
2023/09/03 15:16:35;;;;;;;5.63;1.10;;;;;;;;;;5116247;27;20553;-69
2023/09/03 15:19:01;;;;;;;2.17;1.00;;;;;;;;;;5110986;27;20066;-69
2023/09/03 15:21:28;;;;;;;4.95;1.00;;;;;;;;;;5110452;28;20459;-70
2023/09/03 15:23:55;;;;;;;4.53;0.98;;;;;;;;;;5111053;28;20092;-69
2023/09/03 15:26:22;;;;;;;5.40;0.90;;;;;;;;;;5110971;28;20093;-70
2023/09/03 15:28:48;;;;;;;2.30;1.13;;;;;;;;;;5111378;28;20096;-69
2023/09/03 15:31:15;;;;;;;3.70;1.35;;;;;;;;;;5110712;28;20050;-70
2023/09/03 15:33:41;;;;;;;4.40;1.25;;;;;;;;;;5111187;28;20035;-69
2023/09/03 15:36:08;;;;;;;2.28;1.05;;;;;;;;;;5113957;27;20039;-70
2023/09/03 15:38:34;;;;;;;2.63;1.00;;;;;;;;;;5110823;28;20067;-70
2023/09/03 15:41:04;;;;;;;2.05;1.10;;;;;;;;;;5109741;28;20099;-70
2023/09/03 15:43:30;;;;;;;2.92;0.73;;;;;;;;;;5110912;28;20071;-70
2023/09/03 15:45:57;;;;;;;2.08;1.10;;;;;;;;;;5110780;28;20043;-70
2023/09/03 15:48:23;;;;;;;2.78;1.02;;;;;;;;;;5116708;27;20039;-70
2023/09/03 15:50:50;;;;;;;3.65;1.52;;;;;;;;;;5109659;28;20043;-69
2023/09/03 15:53:16;;;;;;;3.03;1.35;;;;;;;;;;5108825;28;20155;-70
2023/09/03 15:55:43;;;;;;;2.47;1.00;;;;;;;;;;5110658;28;20035;-70
2023/09/03 15:58:09;;;;;;;5.20;1.13;;;;;;;;;;5110181;28;20572;-69
2023/09/03 16:00:37;;;;;;;7.75;1.55;;;;;;;;;;5110779;27;20385;-69
2023/09/03 16:03:04;;;;;;;2.83;1.17;;;;;;;;;;5110224;28;20043;-68
2023/09/03 16:05:31;;;;;;;4.20;1.00;;;;;;;;;;5108400;28;20648;-67
2023/09/03 16:07:57;;;;;;;4.47;1.25;;;;;;;;;;5031799;28;20103;-68
2023/09/03 16:10:24;;;;;;;4.45;1.05;;;;;;;;;;5079707;28;20048;-67
2023/09/03 16:12:57;;;;;;;2.25;1.50;;;;;;;;;;5088909;28;20635;-67
2023/09/03 16:15:24;;;;;;;3.92;1.08;;;;;;;;;;5088258;28;20048;-65
2023/09/03 16:17:50;;;;;;;2.45;1.20;;;;;;;;;;5087704;28;20468;-69
2023/09/03 16:20:17;;;;;;;2.88;1.23;;;;;;;;;;5088733;28;20055;-71
2023/09/03 16:22:44;;;;;;;3.17;1.05;;;;;;;;;;5089363;28;20083;-64
2023/09/03 16:25:10;;;;;;;2.58;0.70;;;;;;;;;;5089001;28;20032;-67
2023/09/03 16:27:36;;;;;;;3.58;1.63;;;;;;;;;;5090144;28;20131;-68
2023/09/03 16:30:04;;;;;;;2.97;1.50;;;;;;;;;;5089445;28;20040;-67
2023/09/03 16:32:30;;;;;;;2.60;1.30;;;;;;;;;;5090257;28;20047;-65
2023/09/03 16:34:58;;;;;;;1.65;0.80;;;;;;;;;;5089552;28;20136;-66
2023/09/03 16:37:24;;;;;;;2.10;1.30;;;;;;;;;;5090111;28;20040;-65
2023/09/03 16:39:50;;;;;;;5.20;1.50;;;;;;;;;;5089342;28;20090;-66
2023/09/03 16:42:17;;;;;;;5.10;1.65;;;;;;;;;;5090073;28;20088;-66
2023/09/03 16:44:43;;;;;;;4.55;1.40;;;;;;;;;;5089524;28;20044;-67
2023/09/03 16:47:10;;;;;;;2.30;1.38;;;;;;;;;;5088362;28;20112;-67
2023/09/03 16:49:39;;;;;;;7.93;1.98;;;;;;;;;;5087580;28;20074;-67
2023/09/03 16:52:06;;;;;;;2.83;1.02;;;;;;;;;;5087518;28;20075;-65
2023/09/03 16:54:33;;;;;;;6.38;1.25;;;;;;;;;;5087731;28;20123;-66
2023/09/03 16:56:59;;;;;;;3.60;1.17;;;;;;;;;;5088266;28;20125;-66
2023/09/03 16:59:26;;;;;;;2.85;1.60;;;;;;;;;;5088858;28;20080;-67
2023/09/03 17:01:53;;;;;;;4.13;2.42;;;;;;;;;;5088882;28;20127;-67
2023/09/03 17:04:19;;;;;;;3.22;1.17;;;;;;;;;;5088920;28;20047;-65
2023/09/03 17:06:45;;;;;;;3.63;1.40;;;;;;;;;;5089337;28;20078;-70
2023/09/03 17:09:12;;;;;;;2.38;1.52;;;;;;;;;;5089464;28;20064;-68
2023/09/03 17:11:38;;;;;;;4.18;1.30;;;;;;;;;;5089532;28;20044;-65
2023/09/03 17:14:05;;;;;;;4.88;1.50;;;;;;;;;;5089578;28;20044;-64
2023/09/03 17:16:31;;;;;;;3.17;1.92;;;;;;;;;;5089490;28;20051;-67
2023/09/03 17:18:58;;;;;;;2.42;1.40;;;;;;;;;;5093300;28;20051;-69
2023/09/03 17:21:25;;;;;;;4.60;1.30;;;;;;;;;;5092958;28;20453;-67
2023/09/03 17:23:52;;;;;;;3.78;1.90;;;;;;;;;;5091706;28;20089;-69
2023/09/03 17:26:19;;;;;;;3.70;1.58;;;;;;;;;;5093343;28;20090;-65
2023/09/03 17:28:57;;;;;;;9.60;1.95;;;;;;;;;;5092887;28;20119;-70
2023/09/03 17:31:26;;;;;;;6.65;1.98;;;;;;;;;;5093030;28;20762;-67
2023/09/03 17:33:52;;;;;;;4.20;1.45;;;;;;;;;;5092775;28;20101;-70
2023/09/03 17:36:19;;;;;;;4.68;1.90;;;;;;;;;;5092197;28;20043;-63
2023/09/03 17:38:45;;;;;;;8.07;2.05;;;;;;;;;;5092423;28;20080;-67
2023/09/03 17:41:12;;;;;;;5.90;1.30;;;;;;;;;;5093032;28;20047;-66
2023/09/03 17:43:39;;;;;;;2.40;1.60;;;;;;;;;;5092453;28;20036;-66
2023/09/03 17:46:05;;;;;;;4.13;1.70;;;;;;;;;;5093341;28;20552;-64
2023/09/03 17:48:32;;;;;;;5.90;1.60;;;;;;;;;;5092625;28;20036;-67
2023/09/03 17:51:00;;;;;;;7.53;2.22;;;;;;;;;;5093187;28;20040;-65
2023/09/03 17:53:27;;;;;;;7.22;2.00;;;;;;;;;;5092643;28;20082;-66
2023/09/03 17:55:54;;;;;;;3.03;1.85;;;;;;;;;;5093545;28;20468;-64
2023/09/03 17:58:20;;;;;;;8.82;1.52;;;;;;;;;;5092516;28;20044;-64
2023/09/03 18:00:47;;;;;;;3.42;1.40;;;;;;;;;;5093343;28;20051;-67
2023/09/03 18:03:14;;;;;;;2.67;1.40;;;;;;;;;;5092618;28;20135;-64
2023/09/03 18:05:41;;;;;;;5.68;1.65;;;;;;;;;;5093159;28;20044;-66
2023/09/03 18:08:08;;;;;;;2.78;1.50;;;;;;;;;;5093589;28;20048;-65
2023/09/03 18:10:34;;;;;;;6.45;1.52;;;;;;;;;;5092724;28;20032;-67
2023/09/03 18:13:01;;;;;;;6.88;1.70;;;;;;;;;;5093279;28;20101;-64
2023/09/03 18:15:27;;;;;;;4.50;2.00;;;;;;;;;;5092077;28;20044;-67
2023/09/03 18:17:54;;;;;;;3.83;1.80;;;;;;;;;;5092638;28;20119;-66
2023/09/03 18:20:21;;;;;;;3.78;1.75;;;;;;;;;;5092282;28;20495;-66
2023/09/03 18:22:48;;;;;;;2.75;1.52;;;;;;;;;;5093046;28;20097;-68
2023/09/03 18:25:14;;;;;;;4.55;1.45;;;;;;;;;;5091784;28;20066;-64
2023/09/03 18:27:41;;;;;;;3.10;1.77;;;;;;;;;;5092562;28;20127;-67
2023/09/03 18:30:07;;;;;;;3.35;1.70;;;;;;;;;;5091376;28;20484;-68
2023/09/03 18:32:34;;;;;;;4.13;1.50;;;;;;;;;;5092228;28;20101;-67
2023/09/03 18:35:00;;;;;;;3.97;1.85;;;;;;;;;;5092408;28;20106;-66
2023/09/03 18:37:27;;;;;;;3.08;1.90;;;;;;;;;;5092331;28;20089;-66
2023/09/03 18:39:54;;;;;;;3.10;1.92;;;;;;;;;;5092154;28;20551;-67
2023/09/03 18:42:20;;;;;;;4.30;1.85;;;;;;;;;;5092213;28;20480;-67
2023/09/03 18:44:47;;;;;;;4.13;2.10;;;;;;;;;;5092265;28;20143;-67
2023/09/03 18:47:13;;;;;;;3.35;2.28;;;;;;;;;;5092150;28;20127;-66
2023/09/03 18:49:40;;;;;;;5.63;2.47;;;;;;;;;;5092212;28;20047;-67
2023/09/03 18:52:06;;;;;;;4.85;2.40;;;;;;;;;;5090951;28;20438;-66
2023/09/03 18:54:33;;;;;;;4.10;2.17;;;;;;;;;;5091948;28;20090;-67
2023/09/03 18:56:59;;;;;;;4.93;2.33;;;;;;;;;;5089013;28;20158;-67
2023/09/03 18:59:26;;;;;;;4.25;2.50;;;;;;;;;;5087334;28;20131;-67
2023/09/03 19:01:53;;;;;;;5.45;2.40;;;;;;;;;;5091785;28;20395;-66
2023/09/03 19:04:19;;;;;;;4.28;2.42;;;;;;;;;;5091853;28;20068;-66
2023/09/03 19:06:47;;;;;;;3.60;2.65;;;;;;;;;;5087107;28;20040;-68
2023/09/03 19:09:15;;;;;;;5.60;2.75;;;;;;;;;;5080685;28;20098;-66
2023/09/03 19:11:41;;;;;;;2.95;2.00;;;;;;;;;;5091510;28;20128;-66
2023/09/03 19:14:09;;;;;;;3.00;2.30;;;;;;;;;;5091347;28;20768;-66
2023/09/03 19:16:35;;;;;;;5.20;2.50;;;;;;;;;;5092266;28;20131;-66
2023/09/03 19:19:02;;;;;;;9.65;2.20;;;;;;;;;;5091011;28;20044;-67
2023/09/03 19:21:30;;;;;;;4.57;2.85;;;;;;;;;;5092169;28;20040;-68
2023/09/03 19:23:57;;;;;;;4.40;2.50;;;;;;;;;;5091087;28;20035;-66
2023/09/03 19:26:24;;;;;;;5.18;2.97;;;;;;;;;;5091884;28;20051;-66
2023/09/03 19:28:50;;;;;;;3.58;2.08;;;;;;;;;;5090614;28;20674;-67
2023/09/03 19:31:17;;;;;;;4.50;2.63;;;;;;;;;;5091570;28;20764;-67
2023/09/03 19:33:43;;;;;;;4.32;2.72;;;;;;;;;;5090741;28;20050;-66
2023/09/03 19:36:11;;;;;;;5.60;2.17;;;;;;;;;;5091554;28;20040;-67
2023/09/03 19:38:38;;;;;;;4.13;2.65;;;;;;;;;;5090734;28;20365;-66
2023/09/03 19:41:04;;;;;;;6.13;2.88;;;;;;;;;;5090633;28;20477;-66
2023/09/03 19:43:31;;;;;;;4.18;2.75;;;;;;;;;;5090975;28;20127;-67
2023/09/03 19:45:59;;;;;;;5.60;2.60;;;;;;;;;;5091508;28;20139;-66
2023/09/03 19:48:33;;;;;;;7.53;2.67;;;;;;;;;;5091125;28;20071;-66
2023/09/03 19:51:00;;;;;;;6.03;2.28;;;;;;;;;;5090926;28;20036;-68
2023/09/03 19:53:29;;;;;;;3.95;2.50;;;;;;;;;;5090985;28;20079;-69
2023/09/03 19:55:58;;;;;;;5.55;2.40;;;;;;;;;;5091163;28;20040;-69
2023/09/03 19:58:24;;;;;;;4.72;2.75;;;;;;;;;;5090817;28;20127;-67
2023/09/03 20:00:52;;;;;;;3.47;2.40;;;;;;;;;;5091032;28;20044;-68
2023/09/03 20:03:19;;;;;;;5.47;3.78;;;;;;;;;;5090627;28;20062;-68
2023/09/03 20:05:54;;;;;;;4.93;2.45;;;;;;;;;;5090756;28;20044;-68
2023/09/03 20:08:21;;;;;;;2.92;2.45;;;;;;;;;;5090626;28;20048;-68
2023/09/03 20:10:47;;;;;;;6.20;2.88;;;;;;;;;;5090846;28;20035;-68
2023/09/03 20:13:14;;;;;;;5.25;2.70;;;;;;;;;;5090533;28;20040;-68
2023/09/03 20:15:40;;;;;;;7.00;3.13;;;;;;;;;;5091171;28;20036;-68
2023/09/03 20:18:07;;;;;;;5.45;2.75;;;;;;;;;;5089370;28;20066;-68
2023/09/03 20:20:35;;;;;;;3.88;2.70;;;;;;;;;;5071036;28;20055;-67
2023/09/03 20:23:02;;;;;;;6.57;2.72;;;;;;;;;;5075485;28;20085;-68
2023/09/03 20:25:29;;;;;;;4.93;2.88;;;;;;;;;;5090878;28;20097;-68
2023/09/03 20:27:55;;;;;;;3.15;2.38;;;;;;;;;;5090385;28;20119;-67
2023/09/03 20:30:22;;;;;;;8.05;2.70;;;;;;;;;;5090741;28;20120;-69
2023/09/03 20:32:48;;;;;;;6.25;2.70;;;;;;;;;;5090462;28;20083;-69
2023/09/03 20:35:15;;;;;;;4.80;3.00;;;;;;;;;;5090280;28;20155;-67
2023/09/03 20:37:42;;;;;;;4.43;2.45;;;;;;;;;;5090429;28;20439;-68
2023/09/03 20:40:11;;;;;;;4.18;2.63;;;;;;;;;;5090397;28;20120;-67
2023/09/03 20:42:38;;;;;;;3.95;2.70;;;;;;;;;;5090539;28;20052;-68
2023/09/03 20:45:05;;;;;;;6.20;3.13;;;;;;;;;;5090208;28;20150;-67
2023/09/03 20:47:31;;;;;;;4.90;3.35;;;;;;;;;;5089447;28;20499;-67
2023/09/03 20:49:58;;;;;;;5.85;3.30;;;;;;;;;;5089931;28;20040;-68
2023/09/03 20:52:25;;;;;;;3.58;2.63;;;;;;;;;;5091922;28;20094;-67
2023/09/03 20:54:51;;;;;;;9.25;4.32;;;;;;;;;;5094143;28;20044;-67
2023/09/03 20:57:18;;;;;;;5.07;3.08;;;;;;;;;;5094668;28;20048;-67
2023/09/03 20:59:44;;;;;;;3.42;2.70;;;;;;;;;;5094214;28;20105;-67
2023/09/03 21:02:12;;;;;;;5.38;3.08;;;;;;;;;;5094613;28;20071;-68
2023/09/03 21:04:39;;;;;;;6.78;2.80;;;;;;;;;;5093881;28;20130;-67
2023/09/03 21:07:06;;;;;;;5.90;3.53;;;;;;;;;;5094454;28;20087;-67
2023/09/03 21:09:32;;;;;;;5.50;2.72;;;;;;;;;;5093808;28;20576;-67
2023/09/03 21:11:59;;;;;;;5.20;2.90;;;;;;;;;;5094134;28;20048;-66
2023/09/03 21:14:25;;;;;;;6.85;2.75;;;;;;;;;;5093834;28;20123;-68
2023/09/03 21:16:51;;;;;;;6.00;3.00;;;;;;;;;;5093688;28;20060;-68
2023/09/03 21:19:18;;;;;;;6.57;2.95;;;;;;;;;;5093955;28;20473;-67
2023/09/03 21:21:44;;;;;;;4.28;2.90;;;;;;;;;;5093538;28;20127;-68
2023/09/03 21:24:11;;;;;;;7.00;3.25;;;;;;;;;;5094007;28;20087;-69
2023/09/03 21:26:40;;;;;;;7.13;3.03;;;;;;;;;;5092770;28;20122;-68
2023/09/03 21:29:06;;;;;;;6.40;3.13;;;;;;;;;;5093602;28;20039;-67
2023/09/03 21:31:33;;;;;;;5.65;3.00;;;;;;;;;;5093411;28;20093;-69
2023/09/03 21:34:00;;;;;;;4.38;3.05;;;;;;;;;;5093609;28;20438;-68
2023/09/03 21:36:26;;;;;;;9.20;3.50;;;;;;;;;;5093723;28;20122;-67
2023/09/03 21:38:53;;;;;;;5.47;3.20;;;;;;;;;;5093493;28;20119;-68
2023/09/03 21:41:20;;;;;;;3.83;2.70;;;;;;;;;;5093399;28;20107;-67
2023/09/03 21:43:49;;;;;;;8.65;3.83;;;;;;;;;;5093289;28;20040;-67
2023/09/03 21:46:15;;;;;;;6.63;3.30;;;;;;;;;;5093709;28;20082;-68
2023/09/03 21:48:42;;;;;;;5.82;3.25;;;;;;;;;;5093224;28;20043;-68
2023/09/03 21:51:08;;;;;;;3.70;3.00;;;;;;;;;;5093255;28;20127;-67
2023/09/03 21:53:45;;;;;;;7.40;3.83;;;;;;;;;;5093030;28;20111;-66
2023/09/03 21:56:11;;;;;;;5.03;3.35;;;;;;;;;;5093706;28;20044;-68
2023/09/03 21:58:38;;;;;;;5.35;3.88;;;;;;;;;;5092896;28;20097;-67
2023/09/03 22:01:04;;;;;;;9.95;4.03;;;;;;;;;;5092842;28;20460;-68
2023/09/03 22:03:31;;;;;;;6.25;3.67;;;;;;;;;;5092527;28;20110;-66
2023/09/03 22:06:00;;;;;;;4.10;3.25;;;;;;;;;;5093797;28;20418;-67
2023/09/03 22:08:26;;;;;;;6.13;3.55;;;;;;;;;;5092636;28;20545;-67
2023/09/03 22:10:53;;;;;;;4.35;3.40;;;;;;;;;;5093060;28;20040;-68
2023/09/03 22:13:19;;;;;;;6.50;3.90;;;;;;;;;;5092454;28;20040;-66
2023/09/03 22:15:46;;;;;;;5.55;3.67;;;;;;;;;;5093135;28;20040;-67
2023/09/03 22:18:12;;;;;;;12.45;4.50;;;;;;;;;;5092387;28;20048;-68
2023/09/03 22:20:39;;;;;;;8.85;3.58;;;;;;;;;;5093274;28;20040;-67
2023/09/03 22:23:05;;;;;;;7.38;4.18;;;;;;;;;;5092616;28;20040;-67
2023/09/03 22:25:32;;;;;;;5.93;3.83;;;;;;;;;;5092590;28;20040;-67
2023/09/03 22:27:59;;;;;;;5.72;4.55;;;;;;;;;;5092821;28;20048;-67
2023/09/03 22:30:25;;;;;;;5.07;3.25;;;;;;;;;;5091951;28;20657;-66
2023/09/03 22:32:52;;;;;;;5.63;3.58;;;;;;;;;;5092691;28;20111;-67
2023/09/03 22:35:18;;;;;;;5.20;3.67;;;;;;;;;;5092143;28;20040;-68
2023/09/03 22:37:45;;;;;;;6.93;3.80;;;;;;;;;;5092983;28;20042;-67
2023/09/03 22:40:11;;;;;;;7.22;3.47;;;;;;;;;;5092055;28;20083;-67
2023/09/03 22:42:38;;;;;;;6.35;3.90;;;;;;;;;;5092801;28;20087;-66
2023/09/03 22:45:05;;;;;;;7.30;3.63;;;;;;;;;;5091869;28;20036;-66
2023/09/03 22:47:31;;;;;;;6.53;4.03;;;;;;;;;;5092573;28;20071;-67
2023/09/03 22:49:58;;;;;;;5.80;3.83;;;;;;;;;;5091946;28;20044;-66
2023/09/03 22:52:24;;;;;;;5.63;3.47;;;;;;;;;;5093373;28;20452;-66
2023/09/03 22:54:51;;;;;;;5.72;3.95;;;;;;;;;;5091295;28;20043;-68
2023/09/03 22:57:17;;;;;;;5.85;3.95;;;;;;;;;;5091773;28;20094;-67
2023/09/03 22:59:44;;;;;;;5.30;4.15;;;;;;;;;;5091862;28;20064;-67
2023/09/03 23:02:10;;;;;;;5.47;3.40;;;;;;;;;;5092218;28;20044;-67
2023/09/03 23:04:37;;;;;;;5.38;3.53;;;;;;;;;;5092204;28;20071;-67
2023/09/03 23:07:03;;;;;;;5.47;3.42;;;;;;;;;;5091547;28;20048;-67
2023/09/03 23:09:31;;;;;;;4.82;3.40;;;;;;;;;;5090932;28;20080;-67
2023/09/03 23:11:57;;;;;;;8.90;4.45;;;;;;;;;;5091899;28;20507;-67
2023/09/03 23:14:24;;;;;;;9.50;3.67;;;;;;;;;;5091777;28;20066;-67
2023/09/03 23:16:51;;;;;;;7.38;4.22;;;;;;;;;;5091652;28;20526;-67
2023/09/03 23:19:18;;;;;;;7.53;4.35;;;;;;;;;;5092040;28;20476;-67
2023/09/03 23:21:46;;;;;;;4.40;4.00;;;;;;;;;;5092195;28;20076;-72
2023/09/03 23:24:16;;;;;;;6.60;4.43;;;;;;;;;;5091332;28;20122;-67
2023/09/03 23:26:43;;;;;;;8.85;4.45;;;;;;;;;;5091806;28;20097;-66
2023/09/03 23:29:10;;;;;;;6.50;3.83;;;;;;;;;;5090796;28;20036;-66
2023/09/03 23:31:37;;;;;;;6.05;4.25;;;;;;;;;;5091827;28;20090;-67
2023/09/03 23:34:04;;;;;;;7.18;4.55;;;;;;;;;;5090909;28;20550;-66
2023/09/03 23:36:33;;;;;;;11.30;5.03;;;;;;;;;;5091948;28;20476;-66
2023/09/03 23:39:00;;;;;;;8.68;4.82;;;;;;;;;;5090910;28;20089;-67
2023/09/03 23:41:26;;;;;;;10.02;5.25;;;;;;;;;;5091873;28;20136;-66
2023/09/03 23:43:52;;;;;;;9.52;5.13;;;;;;;;;;5090738;28;20043;-67
2023/09/03 23:46:19;;;;;;;7.90;4.90;;;;;;;;;;5092374;28;20043;-66
2023/09/03 23:48:45;;;;;;;8.52;4.97;;;;;;;;;;5091784;28;20032;-67
2023/09/03 23:51:12;;;;;;;9.60;4.80;;;;;;;;;;5091833;28;20499;-67
2023/09/03 23:53:41;;;;;;;9.77;4.95;;;;;;;;;;5090500;28;20523;-67
2023/09/03 23:56:07;;;;;;;7.30;4.47;;;;;;;;;;5091137;28;20067;-66
2023/09/03 23:58:33;;;;;;;7.78;5.50;;;;;;;;;;5090671;28;20067;-66
